createdAt,value
2018-09-18T00:02:23.095Z,16.21
2018-09-18T00:04:57.923Z,16.17
2018-09-18T00:07:32.406Z,16.17
2018-09-18T00:10:07.364Z,16.13
2018-09-18T00:12:41.871Z,16.16
2018-09-18T00:15:16.736Z,16.21
2018-09-18T00:17:51.683Z,16.20
2018-09-18T00:20:26.017Z,16.16
2018-09-18T00:23:00.623Z,16.10
2018-09-18T00:25:35.847Z,16.06
2018-09-18T00:28:10.455Z,16.07
2018-09-18T00:30:45.343Z,16.10
2018-09-18T00:33:20.339Z,16.07
2018-09-18T00:35:55.035Z,16.03
2018-09-18T00:38:30.507Z,16.02
2018-09-18T00:41:05.467Z,16.02
2018-09-18T00:43:39.815Z,16.01
2018-09-18T00:46:14.254Z,15.98
2018-09-18T00:48:48.702Z,16.09
2018-09-18T00:51:23.236Z,16.06
2018-09-18T00:53:58.031Z,16.04
2018-09-18T00:56:32.512Z,16.04
2018-09-18T00:59:08.061Z,15.98
2018-09-18T01:01:42.404Z,15.98
2018-09-18T01:04:16.965Z,15.97
2018-09-18T01:06:51.904Z,15.95
2018-09-18T01:09:26.573Z,15.94
2018-09-18T01:12:01.751Z,15.87
2018-09-18T01:14:36.810Z,15.91
2018-09-18T01:17:11.372Z,15.88
2018-09-18T01:19:46.481Z,15.81
2018-09-18T01:22:20.941Z,15.77
2018-09-18T01:24:55.654Z,15.76
2018-09-18T01:27:30.189Z,15.71
2018-09-18T01:30:04.905Z,15.66
2018-09-18T01:32:39.352Z,15.66
2018-09-18T01:35:13.911Z,15.70
2018-09-18T01:37:48.552Z,15.66
2018-09-18T01:40:23.641Z,15.65
2018-09-18T01:42:58.132Z,15.60
2018-09-18T01:45:32.890Z,15.71
2018-09-18T01:48:07.659Z,15.68
2018-09-18T01:50:42.431Z,15.68
2018-09-18T01:53:16.743Z,15.60
2018-09-18T01:55:51.546Z,15.52
2018-09-18T01:58:26.493Z,15.46
2018-09-18T02:01:01.088Z,15.44
2018-09-18T02:03:35.447Z,15.42
2018-09-18T02:06:10.067Z,15.44
2018-09-18T02:08:44.595Z,15.39
2018-09-18T02:11:19.620Z,15.32
2018-09-18T02:13:54.125Z,15.29
2018-09-18T02:16:29.064Z,15.28
2018-09-18T02:19:03.596Z,15.31
2018-09-18T02:21:37.905Z,15.29
2018-09-18T02:24:12.463Z,15.24
2018-09-18T02:26:46.868Z,15.20
2018-09-18T02:29:21.155Z,15.19
2018-09-18T02:31:55.459Z,15.15
2018-09-18T02:34:30.019Z,15.12
2018-09-18T02:37:04.755Z,15.06
2018-09-18T02:39:39.480Z,15.03
2018-09-18T02:42:14.308Z,15.05
2018-09-18T02:44:49.544Z,15.05
2018-09-18T02:47:24.277Z,15.11
2018-09-18T02:49:58.636Z,15.17
2018-09-18T02:52:33.057Z,15.18
2018-09-18T02:55:08.103Z,15.19
2018-09-18T02:57:43.068Z,15.16
2018-09-18T03:00:17.738Z,15.14
2018-09-18T03:02:52.196Z,15.18
2018-09-18T03:05:27.250Z,15.11
2018-09-18T03:08:01.912Z,15.08
2018-09-18T03:10:36.939Z,15.08
2018-09-18T03:13:11.585Z,15.06
2018-09-18T03:15:46.467Z,15.00
2018-09-18T03:18:20.842Z,14.99
2018-09-18T03:20:55.596Z,14.95
2018-09-18T03:23:30.392Z,15.05
2018-09-18T03:26:04.863Z,14.97
2018-09-18T03:28:39.496Z,15.02
2018-09-18T03:31:13.878Z,14.96
2018-09-18T03:33:48.395Z,14.91
2018-09-18T03:36:22.827Z,14.88
2018-09-18T03:38:57.128Z,14.87
2018-09-18T03:41:31.983Z,14.87
2018-09-18T03:44:06.852Z,14.86
2018-09-18T03:46:41.907Z,14.84
2018-09-18T03:49:16.557Z,14.77
2018-09-18T03:51:51.127Z,14.82
2018-09-18T03:54:25.482Z,14.81
2018-09-18T03:56:59.817Z,14.85
2018-09-18T03:59:34.349Z,14.80
2018-09-18T04:02:09.008Z,14.76
2018-09-18T04:04:43.648Z,14.80
2018-09-18T04:07:18.031Z,14.77
2018-09-18T04:09:52.647Z,14.70
2018-09-18T04:12:27.187Z,14.71
2018-09-18T04:15:02.020Z,14.70
2018-09-18T04:17:36.895Z,14.65
2018-09-18T04:20:12.156Z,14.67
2018-09-18T04:22:46.713Z,14.66
2018-09-18T04:25:21.492Z,14.67
2018-09-18T04:27:58.003Z,14.64
2018-09-18T04:30:32.683Z,14.64
2018-09-18T04:33:07.060Z,14.63
2018-09-18T04:35:41.571Z,14.61
2018-09-18T04:38:16.071Z,14.60
2018-09-18T04:40:50.680Z,14.68
2018-09-18T04:43:25.263Z,14.73
2018-09-18T04:46:00.157Z,14.68
2018-09-18T04:48:34.696Z,14.65
2018-09-18T04:51:09.736Z,14.64
2018-09-18T04:53:44.151Z,14.64
2018-09-18T04:56:18.704Z,14.68
2018-09-18T04:58:53.752Z,14.63
2018-09-18T05:01:28.071Z,14.68
2018-09-18T05:04:02.705Z,14.65
2018-09-18T05:06:37.263Z,14.63
2018-09-18T05:09:11.994Z,14.63
2018-09-18T05:11:46.751Z,14.67
2018-09-18T05:14:21.400Z,14.66
2018-09-18T05:16:55.815Z,14.66
2018-09-18T05:19:30.911Z,14.67
2018-09-18T05:22:06.184Z,14.67
2018-09-18T05:24:40.462Z,14.70
2018-09-18T05:27:15.373Z,14.72
2018-09-18T05:29:49.775Z,14.77
2018-09-18T05:32:24.319Z,14.79
2018-09-18T05:34:58.750Z,14.84
2018-09-18T05:37:33.512Z,14.87
2018-09-18T05:40:07.835Z,14.93
2018-09-18T05:42:42.204Z,14.98
2018-09-18T05:45:17.135Z,15.05
2018-09-18T05:47:52.072Z,15.12
2018-09-18T05:50:26.478Z,15.16
2018-09-18T05:53:01.579Z,15.23
2018-09-18T05:55:36.040Z,15.32
2018-09-18T05:58:10.531Z,15.37
2018-09-18T06:00:45.417Z,15.46
2018-09-18T06:03:19.981Z,15.52
2018-09-18T06:05:54.691Z,15.69
2018-09-18T06:08:29.268Z,15.72
2018-09-18T06:11:04.416Z,15.81
2018-09-18T06:13:38.732Z,15.80
2018-09-18T06:16:13.187Z,15.87
2018-09-18T06:18:48.218Z,15.93
2018-09-18T06:21:23.021Z,16.02
2018-09-18T06:23:57.636Z,16.08
2018-09-18T06:26:32.181Z,16.14
2018-09-18T06:29:06.881Z,16.19
2018-09-18T06:31:41.635Z,16.25
2018-09-18T06:34:16.106Z,16.27
2018-09-18T06:36:50.441Z,16.29
2018-09-18T06:39:25.517Z,16.38
2018-09-18T06:41:59.855Z,16.48
2018-09-18T06:44:34.642Z,16.57
2018-09-18T06:47:09.025Z,16.63
2018-09-18T06:49:44.829Z,16.66
2018-09-18T06:52:19.463Z,16.75
2018-09-18T06:54:54.142Z,16.89
2018-09-18T06:57:28.912Z,16.92
2018-09-18T07:00:03.661Z,17.01
2018-09-18T07:02:38.208Z,17.09
2018-09-18T07:05:12.649Z,17.20
2018-09-18T07:07:46.980Z,17.29
2018-09-18T07:10:21.996Z,17.36
2018-09-18T07:12:56.964Z,17.51
2018-09-18T07:15:31.731Z,17.66
2018-09-18T07:18:07.173Z,17.77
2018-09-18T07:20:41.959Z,17.98
2018-09-18T07:23:16.596Z,18.03
2018-09-18T07:25:51.207Z,18.05
2018-09-18T07:28:26.232Z,18.15
2018-09-18T07:31:00.891Z,18.25
2018-09-18T07:33:35.366Z,18.32
2018-09-18T07:36:10.427Z,18.42
2018-09-18T07:38:45.552Z,18.50
2018-09-18T07:41:20.756Z,18.67
2018-09-18T07:43:55.811Z,18.84
2018-09-18T07:46:30.753Z,18.94
2018-09-18T07:49:06.203Z,19.03
2018-09-18T07:51:40.902Z,19.17
2018-09-18T07:54:15.278Z,19.31
2018-09-18T07:56:50.150Z,19.44
2018-09-18T07:59:24.804Z,19.64
2018-09-18T08:01:59.344Z,19.75
2018-09-18T08:04:33.831Z,19.95
2018-09-18T08:07:09.221Z,20.15
2018-09-18T08:09:43.884Z,20.29
2018-09-18T08:12:19.521Z,20.56
2018-09-18T08:14:54.052Z,20.73
2018-09-18T08:17:28.815Z,21.04
2018-09-18T08:20:03.392Z,21.01
2018-09-18T08:22:37.952Z,21.24
2018-09-18T08:25:13.165Z,21.44
2018-09-18T08:27:47.939Z,21.69
2018-09-18T08:30:22.279Z,21.96
2018-09-18T08:32:56.835Z,22.22
2018-09-18T08:35:31.379Z,22.49
2018-09-18T08:38:06.440Z,22.75
2018-09-18T08:40:41.118Z,22.85
2018-09-18T08:43:15.892Z,23.08
2018-09-18T08:45:50.219Z,23.34
2018-09-18T08:48:29.938Z,23.62
2018-09-18T08:51:05.097Z,23.53
2018-09-18T08:53:39.954Z,23.58
2018-09-18T08:56:15.039Z,23.52
2018-09-18T08:58:50.063Z,23.67
2018-09-18T09:01:25.216Z,23.95
2018-09-18T09:04:00.545Z,24.15
2018-09-18T09:06:35.332Z,24.50
2018-09-18T09:09:12.642Z,24.75
2018-09-18T09:11:47.879Z,24.86
2018-09-18T09:14:22.901Z,25.11
2018-09-18T09:16:57.427Z,25.12
2018-09-18T09:19:32.507Z,25.19
2018-09-18T09:22:07.513Z,25.13
2018-09-18T09:24:42.621Z,25.21
2018-09-18T09:27:17.943Z,25.38
2018-09-18T09:29:52.432Z,25.68
2018-09-18T09:32:27.560Z,25.69
2018-09-18T09:35:02.580Z,25.69
2018-09-18T09:37:37.425Z,25.80
2018-09-18T09:40:11.989Z,26.11
2018-09-18T09:42:46.480Z,26.36
2018-09-18T09:45:21.535Z,26.47
2018-09-18T09:47:55.957Z,26.66
2018-09-18T09:50:30.708Z,26.76
2018-09-18T09:53:04.992Z,27.18
2018-09-18T09:55:39.415Z,27.07
2018-09-18T09:58:13.821Z,27.19
2018-09-18T10:00:53.679Z,27.37
2018-09-18T10:03:28.271Z,27.47
2018-09-18T10:06:02.752Z,27.44
2018-09-18T10:08:37.259Z,27.58
2018-09-18T10:11:12.433Z,27.66
2018-09-18T10:13:47.415Z,27.96
2018-09-18T10:16:21.858Z,28.20
2018-09-18T10:18:56.582Z,28.27
2018-09-18T10:21:31.084Z,28.36
2018-09-18T10:24:05.787Z,28.20
2018-09-18T10:26:41.183Z,28.19
2018-09-18T10:29:16.546Z,28.23
2018-09-18T10:31:51.375Z,28.11
2018-09-18T10:34:25.878Z,28.33
2018-09-18T10:37:00.767Z,28.33
2018-09-18T10:39:36.172Z,28.49
2018-09-18T10:42:11.496Z,28.73
2018-09-18T10:44:46.146Z,28.88
2018-09-18T10:47:20.661Z,28.77
2018-09-18T10:49:55.345Z,28.43
2018-09-18T10:52:30.331Z,28.43
2018-09-18T10:55:04.887Z,28.45
2018-09-18T10:57:39.540Z,28.26
2018-09-18T11:00:14.248Z,28.37
2018-09-18T11:02:49.013Z,28.35
2018-09-18T11:05:23.714Z,28.27
2018-09-18T11:07:58.547Z,28.23
2018-09-18T11:10:33.841Z,28.33
2018-09-18T11:13:08.735Z,28.42
2018-09-18T11:15:43.409Z,28.84
2018-09-18T11:18:18.524Z,29.20
2018-09-18T11:20:53.460Z,29.04
2018-09-18T11:23:28.691Z,29.21
2018-09-18T11:26:03.384Z,29.33
2018-09-18T11:28:38.347Z,29.26
2018-09-18T11:31:12.804Z,29.21
2018-09-18T11:33:47.711Z,29.47
2018-09-18T11:36:22.255Z,29.28
2018-09-18T11:38:57.296Z,28.93
2018-09-18T11:41:31.802Z,28.89
2018-09-18T11:44:06.436Z,29.08
2018-09-18T11:46:41.252Z,28.89
2018-09-18T11:49:16.312Z,28.89
2018-09-18T11:51:50.609Z,29.17
2018-09-18T11:54:32.735Z,29.31
2018-09-18T11:57:07.780Z,29.48
2018-09-18T11:59:43.148Z,29.53
2018-09-18T12:02:18.164Z,29.40
2018-09-18T12:04:53.536Z,29.35
2018-09-18T12:07:28.495Z,29.67
2018-09-18T12:10:03.309Z,29.97
2018-09-18T12:12:38.283Z,30.04
2018-09-18T12:15:12.908Z,29.64
2018-09-18T12:17:47.840Z,29.50
2018-09-18T12:20:22.544Z,29.47
2018-09-18T12:22:57.286Z,29.50
2018-09-18T12:25:32.107Z,29.73
2018-09-18T12:28:06.859Z,29.91
2018-09-18T12:30:41.561Z,29.96
2018-09-18T12:33:16.123Z,30.15
2018-09-18T12:35:50.995Z,30.41
2018-09-18T12:38:25.672Z,30.59
2018-09-18T12:41:00.515Z,30.62
2018-09-18T12:43:35.697Z,30.31
2018-09-18T12:46:10.132Z,30.09
2018-09-18T12:48:44.731Z,29.83
2018-09-18T12:51:19.284Z,29.63
2018-09-18T12:53:54.080Z,29.56
2018-09-18T12:56:29.083Z,29.37
2018-09-18T12:59:03.944Z,29.50
2018-09-18T13:01:38.431Z,29.67
2018-09-18T13:04:13.033Z,29.87
2018-09-18T13:06:48.200Z,29.87
2018-09-18T13:09:22.816Z,29.67
2018-09-18T13:11:57.530Z,29.57
2018-09-18T13:14:32.285Z,29.92
2018-09-18T13:17:07.702Z,30.01
2018-09-18T13:19:42.407Z,29.69
2018-09-18T13:22:17.021Z,29.66
2018-09-18T13:24:52.430Z,29.49
2018-09-18T13:27:27.115Z,29.15
2018-09-18T13:30:01.889Z,29.00
2018-09-18T13:32:36.615Z,28.89
2018-09-18T13:35:11.368Z,28.67
2018-09-18T13:37:46.216Z,28.15
2018-09-18T13:40:21.279Z,27.81
2018-09-18T13:42:55.807Z,27.61
2018-09-18T13:45:30.280Z,27.66
2018-09-18T13:48:04.989Z,27.76
2018-09-18T13:50:39.717Z,28.05
2018-09-18T13:53:14.259Z,28.12
2018-09-18T13:55:49.383Z,28.11
2018-09-18T13:58:24.148Z,28.46
2018-09-18T14:00:58.920Z,28.89
2018-09-18T14:03:35.608Z,29.34
2018-09-18T14:06:17.549Z,29.38
2018-09-18T14:08:52.911Z,29.57
2018-09-18T14:11:27.995Z,29.63
2018-09-18T14:14:02.764Z,29.73
2018-09-18T14:16:37.135Z,29.80
2018-09-18T14:19:11.910Z,29.85
2018-09-18T14:21:48.253Z,29.61
2018-09-18T14:24:23.504Z,29.42
2018-09-18T14:26:58.059Z,29.42
2018-09-18T14:29:32.535Z,29.36
2018-09-18T14:32:07.525Z,29.59
2018-09-18T14:34:42.448Z,29.74
2018-09-18T14:37:17.675Z,29.51
2018-09-18T14:39:52.217Z,29.31
2018-09-18T14:42:26.580Z,29.30
2018-09-18T14:45:01.216Z,29.01
2018-09-18T14:47:35.633Z,28.55
2018-09-18T14:50:10.344Z,28.36
2018-09-18T14:52:45.007Z,28.17
2018-09-18T14:55:20.035Z,27.92
2018-09-18T14:57:54.514Z,27.80
2018-09-18T15:00:28.992Z,27.69
2018-09-18T15:03:03.312Z,27.83
2018-09-18T15:05:38.200Z,27.75
2018-09-18T15:08:13.112Z,27.47
2018-09-18T15:10:48.008Z,27.44
2018-09-18T15:13:22.566Z,27.41
2018-09-18T15:15:56.999Z,27.34
2018-09-18T15:18:32.713Z,27.19
2018-09-18T15:21:07.220Z,27.05
2018-09-18T15:23:42.821Z,27.19
2018-09-18T15:26:17.329Z,27.31
2018-09-18T15:28:52.292Z,27.19
2018-09-18T15:31:26.814Z,27.21
2018-09-18T15:34:01.470Z,27.18
2018-09-18T15:36:37.249Z,27.17
2018-09-18T15:39:11.491Z,27.00
2018-09-18T15:41:45.840Z,26.93
2018-09-18T15:44:20.479Z,26.68
2018-09-18T15:46:54.988Z,26.60
2018-09-18T15:49:29.529Z,26.51
2018-09-18T15:52:04.534Z,26.40
2018-09-18T15:54:39.431Z,26.22
2018-09-18T15:57:13.996Z,26.08
2018-09-18T15:59:48.529Z,25.93
2018-09-18T16:02:23.470Z,25.77
2018-09-18T16:04:57.927Z,25.65
2018-09-18T16:07:32.553Z,25.57
2018-09-18T16:10:07.449Z,25.47
2018-09-18T16:12:42.191Z,25.36
2018-09-18T16:15:16.780Z,25.24
2018-09-18T16:17:51.821Z,25.15
2018-09-18T16:20:26.548Z,25.02
2018-09-18T16:23:00.941Z,24.91
2018-09-18T16:25:35.237Z,24.86
2018-09-18T16:28:09.900Z,24.76
2018-09-18T16:30:44.304Z,24.68
2018-09-18T16:33:19.125Z,24.64
2018-09-18T16:35:57.538Z,24.54
2018-09-18T16:38:31.888Z,24.55
2018-09-18T16:41:07.387Z,24.38
2018-09-18T16:43:42.026Z,24.37
2018-09-18T16:49:00.131Z,24.08
2018-09-18T16:51:34.650Z,23.90
2018-09-18T16:54:09.081Z,23.84
2018-09-18T16:56:43.540Z,23.79
2018-09-18T16:59:18.042Z,23.71
2018-09-18T17:01:52.507Z,23.56
2018-09-18T17:04:27.295Z,23.46
2018-09-18T17:07:01.896Z,23.40
2018-09-18T17:09:36.540Z,23.23
2018-09-18T17:12:11.041Z,23.13
2018-09-18T17:14:45.699Z,23.09
2018-09-18T17:17:20.289Z,22.92
2018-09-18T17:19:54.672Z,22.69
2018-09-18T17:22:29.653Z,22.47
2018-09-18T17:25:05.030Z,22.40
2018-09-18T17:27:39.589Z,22.40
2018-09-18T17:30:14.202Z,22.26
2018-09-18T17:32:48.512Z,22.17
2018-09-18T17:35:22.929Z,22.11
2018-09-18T17:37:57.923Z,21.84
2018-09-18T17:40:32.320Z,21.74
2018-09-18T17:43:07.436Z,21.61
2018-09-18T17:45:42.216Z,21.55
2018-09-18T17:48:16.976Z,21.44
2018-09-18T17:50:51.634Z,21.39
2018-09-18T17:53:26.210Z,21.33
2018-09-18T17:56:01.244Z,21.27
2018-09-18T17:58:35.764Z,21.19
2018-09-18T18:01:10.532Z,21.08
2018-09-18T18:03:45.359Z,21.00
2018-09-18T18:06:19.776Z,20.86
2018-09-18T18:08:56.736Z,20.72
2018-09-18T18:11:31.600Z,20.74
2018-09-18T18:14:06.224Z,20.67
2018-09-18T18:16:41.007Z,20.49
2018-09-18T18:19:15.709Z,20.40
2018-09-18T18:21:50.211Z,20.29
2018-09-18T18:24:24.663Z,20.13
2018-09-18T18:26:59.665Z,20.00
2018-09-18T18:29:34.072Z,19.67
2018-09-18T18:32:09.296Z,19.68
2018-09-18T18:34:43.582Z,19.74
2018-09-18T18:37:18.088Z,19.74
2018-09-18T18:39:52.565Z,19.72
2018-09-18T18:42:26.916Z,19.64
2018-09-18T18:45:02.174Z,19.57
2018-09-18T18:47:37.183Z,19.55
2018-09-18T18:50:11.943Z,19.49
2018-09-18T18:52:46.447Z,19.40
2018-09-18T18:55:20.953Z,19.24
2018-09-18T18:57:55.812Z,19.13
2018-09-18T19:00:30.494Z,18.99
2018-09-18T19:03:05.508Z,18.76
2018-09-18T19:05:39.909Z,18.74
2018-09-18T19:08:15.049Z,18.75
2018-09-18T19:10:49.720Z,18.75
2018-09-18T19:13:24.136Z,18.54
2018-09-18T19:15:58.448Z,18.50
2018-09-18T19:18:32.937Z,18.43
2018-09-18T19:21:07.666Z,18.37
2018-09-18T19:23:42.366Z,18.35
2018-09-18T19:26:16.953Z,18.39
2018-09-18T19:28:51.579Z,18.32
2018-09-18T19:31:26.335Z,18.41
2018-09-18T19:34:01.043Z,18.36
2018-09-18T19:36:35.809Z,18.32
2018-09-18T19:39:10.987Z,18.27
2018-09-18T19:41:45.611Z,18.40
2018-09-18T19:44:20.229Z,18.45
2018-09-18T19:46:54.992Z,18.42
2018-09-18T19:49:29.455Z,18.34
2018-09-18T19:52:04.409Z,18.36
2018-09-18T19:54:39.602Z,18.41
2018-09-18T19:57:14.691Z,18.39
2018-09-18T20:00:03.242Z,18.32
2018-09-18T20:02:38.492Z,18.35
2018-09-18T20:05:13.514Z,18.48
2018-09-18T20:07:48.008Z,18.48
2018-09-18T20:10:22.975Z,18.50
2018-09-18T20:12:57.420Z,18.54
2018-09-18T20:15:31.920Z,18.52
2018-09-18T20:18:06.682Z,18.35
2018-09-18T20:20:41.503Z,18.26
2018-09-18T20:23:16.127Z,18.25
2018-09-18T20:25:50.573Z,17.98
2018-09-18T20:28:25.292Z,17.87
2018-09-18T20:31:00.268Z,17.94
2018-09-18T20:33:35.065Z,17.96
2018-09-18T20:36:09.651Z,18.03
2018-09-18T20:38:44.620Z,17.94
2018-09-18T20:41:19.203Z,17.85
2018-09-18T20:43:53.547Z,17.81
2018-09-18T20:46:28.104Z,17.84
2018-09-18T20:49:02.744Z,17.82
2018-09-18T20:51:37.413Z,17.69
2018-09-18T20:54:12.248Z,17.69
2018-09-18T20:56:46.899Z,17.68
2018-09-18T20:59:21.658Z,17.69
2018-09-18T21:01:56.249Z,17.71
2018-09-18T21:04:31.353Z,17.79
2018-09-18T21:07:06.500Z,17.85
2018-09-18T21:09:40.915Z,17.91
2018-09-18T21:12:15.239Z,18.05
2018-09-18T21:14:49.524Z,17.94
2018-09-18T21:17:24.035Z,17.86
2018-09-18T21:19:59.424Z,17.81
2018-09-18T21:22:33.851Z,17.73
2018-09-18T21:25:15.850Z,17.76
2018-09-18T21:27:50.474Z,17.78
2018-09-18T21:30:25.471Z,17.75
2018-09-18T21:32:59.940Z,17.76
2018-09-18T21:35:34.535Z,17.86
2018-09-18T21:38:09.083Z,17.84
2018-09-18T21:40:44.359Z,17.84
2018-09-18T21:43:19.151Z,17.83
2018-09-18T21:45:54.214Z,17.87
2018-09-18T21:48:29.747Z,17.95
2018-09-18T21:51:04.395Z,18.02
2018-09-18T21:53:38.880Z,17.99
2018-09-18T21:56:13.657Z,17.97
2018-09-18T21:58:48.240Z,17.85
2018-09-18T22:01:23.194Z,17.79
2018-09-18T22:03:57.808Z,17.76
2018-09-18T22:06:32.226Z,17.75
2018-09-18T22:09:06.557Z,17.86
2018-09-18T22:11:41.259Z,17.79
2018-09-18T22:14:15.952Z,17.72
2018-09-18T22:16:50.541Z,17.70
2018-09-18T22:19:24.913Z,17.81
2018-09-18T22:21:59.602Z,17.84
2018-09-18T22:24:34.431Z,17.81
2018-09-18T22:27:08.988Z,17.87
2018-09-18T22:29:43.348Z,17.89
2018-09-18T22:32:17.911Z,17.97
2018-09-18T22:34:52.423Z,18.01
2018-09-18T22:37:26.857Z,17.97
2018-09-18T22:40:01.584Z,18.00
2018-09-18T22:42:36.099Z,17.98
2018-09-18T22:45:10.468Z,18.05
2018-09-18T22:47:45.424Z,18.08
2018-09-18T22:50:20.534Z,17.97
2018-09-18T22:52:55.027Z,18.06
2018-09-18T22:55:29.837Z,18.08
2018-09-18T22:58:04.124Z,18.10
2018-09-18T23:00:38.636Z,18.05
2018-09-18T23:03:13.295Z,18.18
2018-09-18T23:05:47.642Z,18.14
2018-09-18T23:08:22.384Z,18.05
2018-09-18T23:10:57.154Z,18.04
2018-09-18T23:13:31.728Z,18.00
2018-09-18T23:16:06.695Z,17.95
2018-09-18T23:18:41.078Z,17.98
2018-09-18T23:21:16.234Z,18.02
2018-09-18T23:23:50.678Z,18.03
2018-09-18T23:26:25.504Z,18.10
2018-09-18T23:29:00.317Z,18.09
2018-09-18T23:31:34.787Z,18.10
2018-09-18T23:34:09.681Z,18.16
2018-09-18T23:36:44.439Z,18.15
2018-09-18T23:39:19.099Z,18.13
2018-09-18T23:41:53.367Z,18.16
2018-09-18T23:44:28.196Z,18.12
2018-09-18T23:47:02.603Z,18.01
2018-09-18T23:49:37.397Z,18.03
2018-09-18T23:52:11.797Z,17.89
2018-09-18T23:54:46.332Z,17.79
2018-09-18T23:57:21.261Z,17.82
2018-09-18T23:59:55.997Z,17.70
